Time;durP1;ratioP1;P1;durP2;ratioP2;P2;SDS_P1;SDS_P2;PMS_P1;PMS_P2;Temp;Humidity;BMP_temperature;BMP_pressure;BME280_temperature;BME280_humidity;BME280_pressure;Samples;Min_cycle;Max_cycle;Signal;HPM_P1;HPM_P2
2022/04/29 00:00:18;;;;;;;1.55;1.45;;;;;;;;;;12646149;28;20405;-79
2022/04/29 00:06:20;;;;;;;1.55;1.45;;;;;;;;;;12644623;28;20028;-78
2022/04/29 00:12:22;;;;;;;1.83;1.48;;;;;;;;;;12645572;28;20503;-79
2022/04/29 00:18:24;;;;;;;1.80;1.70;;;;;;;;;;12645329;28;20032;-79
2022/04/29 00:24:26;;;;;;;1.93;1.83;;;;;;;;;;12627149;28;20047;-79
2022/04/29 00:30:27;;;;;;;2.07;1.90;;;;;;;;;;12643365;28;20405;-79
2022/04/29 00:36:29;;;;;;;1.73;1.63;;;;;;;;;;12644742;28;20039;-79
2022/04/29 00:42:31;;;;;;;1.75;1.65;;;;;;;;;;12644718;28;20032;-79
2022/04/29 00:48:32;;;;;;;2.43;1.97;;;;;;;;;;12643068;28;20405;-79
2022/04/29 00:54:35;;;;;;;2.03;1.85;;;;;;;;;;12642520;28;20036;-78
2022/04/29 01:00:38;;;;;;;1.52;1.42;;;;;;;;;;12643271;28;20047;-78
2022/04/29 01:06:41;;;;;;;2.17;1.98;;;;;;;;;;12643734;28;20040;-78
2022/04/29 01:12:43;;;;;;;1.77;1.67;;;;;;;;;;12652913;28;20032;-79
2022/04/29 01:18:46;;;;;;;1.73;1.63;;;;;;;;;;12652659;28;20028;-79
2022/04/29 01:24:49;;;;;;;2.08;1.98;;;;;;;;;;12653417;28;20066;-79
2022/04/29 01:30:52;;;;;;;1.85;1.67;;;;;;;;;;12651470;28;20048;-78
2022/04/29 01:36:54;;;;;;;1.83;1.73;;;;;;;;;;12634957;28;20051;-78
2022/04/29 01:42:56;;;;;;;1.48;1.40;;;;;;;;;;12634673;28;20035;-78
2022/04/29 01:48:57;;;;;;;1.50;1.40;;;;;;;;;;12634018;28;20052;-78
2022/04/29 01:55:18;;;;;;;1.65;1.55;;;;;;;;;;12651042;28;20032;-79
2022/04/29 02:01:20;;;;;;;1.80;1.60;;;;;;;;;;12634830;28;20044;-78
2022/04/29 02:07:22;;;;;;;1.60;1.50;;;;;;;;;;12634481;28;20059;-78
2022/04/29 02:13:24;;;;;;;1.70;1.53;;;;;;;;;;12633378;28;20031;-78
2022/04/29 02:19:46;;;;;;;1.27;1.17;;;;;;;;;;12650909;28;20043;-78
2022/04/29 02:25:48;;;;;;;1.40;1.30;;;;;;;;;;12649446;28;20036;-78
2022/04/29 02:31:50;;;;;;;1.37;1.27;;;;;;;;;;12633312;28;20059;-78
2022/04/29 02:37:52;;;;;;;1.23;1.23;;;;;;;;;;12649339;28;20036;-77
2022/04/29 02:43:54;;;;;;;1.55;1.45;;;;;;;;;;12632358;28;20505;-78
2022/04/29 02:49:56;;;;;;;1.47;1.37;;;;;;;;;;12649200;28;20534;-78
2022/04/29 02:55:58;;;;;;;1.83;1.73;;;;;;;;;;12648469;28;20024;-78
2022/04/29 03:02:08;;;;;;;1.60;1.50;;;;;;;;;;12631228;28;20032;-78
2022/04/29 03:08:11;;;;;;;1.80;1.70;;;;;;;;;;12647317;28;20040;-78
2022/04/29 03:14:13;;;;;;;2.17;1.98;;;;;;;;;;12648138;28;20032;-78
2022/04/29 03:20:15;;;;;;;1.73;1.63;;;;;;;;;;12648230;28;20702;-78
2022/04/29 03:26:17;;;;;;;1.60;1.50;;;;;;;;;;12646578;28;20054;-78
2022/04/29 03:32:19;;;;;;;1.90;1.80;;;;;;;;;;12586819;28;20064;-78
2022/04/29 03:38:50;;;;;;;1.90;1.80;;;;;;;;;;12536323;28;20059;-79
2022/04/29 03:44:52;;;;;;;2.27;2.17;;;;;;;;;;12528912;28;20040;-78
2022/04/29 03:50:58;;;;;;;1.75;1.65;;;;;;;;;;12544980;28;20409;-78
2022/04/29 03:56:59;;;;;;;2.28;2.10;;;;;;;;;;12529214;28;20036;-78
2022/04/29 04:03:07;;;;;;;2.33;2.13;;;;;;;;;;12546341;28;20041;-78
2022/04/29 04:09:11;;;;;;;2.90;2.20;;;;;;;;;;12544510;28;20041;-78
2022/04/29 04:15:13;;;;;;;2.37;2.20;;;;;;;;;;12544125;28;20502;-78
2022/04/29 04:21:19;;;;;;;1.90;1.73;;;;;;;;;;12544295;28;20025;-78
2022/04/29 04:27:21;;;;;;;2.87;2.33;;;;;;;;;;12527121;28;20409;-77
2022/04/29 04:33:23;;;;;;;2.23;2.03;;;;;;;;;;12573483;28;20059;-78
2022/04/29 04:39:26;;;;;;;2.03;1.92;;;;;;;;;;12592740;28;20032;-78
2022/04/29 04:45:34;;;;;;;2.28;2.17;;;;;;;;;;12576042;28;20063;-78
2022/04/29 04:51:56;;;;;;;2.20;2.10;;;;;;;;;;12562796;28;20053;-78
2022/04/29 04:57:58;;;;;;;2.60;2.38;;;;;;;;;;12591992;28;20490;-78
2022/04/29 05:03:59;;;;;;;2.17;1.88;;;;;;;;;;12591547;28;20047;-77
2022/04/29 05:10:20;;;;;;;2.17;1.83;;;;;;;;;;12593327;28;20047;-77
2022/04/29 05:16:22;;;;;;;2.15;2.05;;;;;;;;;;12592330;28;20028;-77
2022/04/29 05:22:42;;;;;;;2.10;2.00;;;;;;;;;;12592420;28;20397;-77
2022/04/29 05:28:47;;;;;;;2.40;2.20;;;;;;;;;;12593447;28;20040;-78
2022/04/29 05:35:09;;;;;;;1.95;1.83;;;;;;;;;;12594457;28;20045;-77
2022/04/29 05:47:50;;;;;;;1.67;1.58;;;;;;;;;;12586065;28;20037;-76
2022/04/29 05:53:52;;;;;;;1.98;1.88;;;;;;;;;;12574234;28;20032;-77
2022/04/29 05:59:54;;;;;;;2.30;2.10;;;;;;;;;;12584624;28;20028;-77
2022/04/29 06:06:03;;;;;;;14.73;13.25;;;;;;;;;;12559532;28;20028;-78
2022/04/29 06:12:06;;;;;;;2.90;2.70;;;;;;;;;;12595112;28;20048;-77
2022/04/29 06:18:09;;;;;;;3.72;3.42;;;;;;;;;;12584545;28;20024;-80
2022/04/29 06:24:29;;;;;;;3.58;3.35;;;;;;;;;;12583109;28;20028;-78
2022/04/29 06:30:31;;;;;;;5.17;4.73;;;;;;;;;;12590430;28;20048;-77
2022/04/29 06:36:53;;;;;;;3.77;3.40;;;;;;;;;;12546161;28;20037;-77
2022/04/29 06:42:57;;;;;;;17.77;15.90;;;;;;;;;;12605150;28;20040;-77
2022/04/29 06:49:25;;;;;;;11.38;9.57;;;;;;;;;;12561096;28;20068;-77
2022/04/29 06:55:58;;;;;;;4.70;4.30;;;;;;;;;;12623803;28;20028;-79
2022/04/29 07:02:01;;;;;;;;;;;;;;;;;;12586718;28;20026;-78
2022/04/29 07:08:03;;;;;;;3.88;3.47;;;;;;;;;;12586673;28;19924;-78
2022/04/29 07:14:23;;;;;;;3.10;2.72;;;;;;;;;;12586997;28;20036;-78
2022/04/29 07:20:31;;;;;;;2.40;2.20;;;;;;;;;;12583626;28;20035;-79
2022/04/29 07:26:33;;;;;;;2.05;1.92;;;;;;;;;;12576709;28;20047;-79
2022/04/29 07:32:35;;;;;;;1.57;1.47;;;;;;;;;;12584221;28;20693;-80
2022/04/29 07:45:16;;;;;;;1.48;1.38;;;;;;;;;;12611112;28;20046;-79
2022/04/29 07:51:38;;;;;;;2.77;1.50;;;;;;;;;;12610250;28;20056;-79
2022/04/29 07:57:40;;;;;;;4.10;3.57;;;;;;;;;;12603646;28;20044;-80
2022/04/29 08:03:42;;;;;;;3.53;3.20;;;;;;;;;;12574662;28;20294;-79
2022/04/29 08:09:46;;;;;;;3.58;2.85;;;;;;;;;;12603768;28;20044;-79
2022/04/29 08:15:49;;;;;;;2.70;2.50;;;;;;;;;;12594311;28;20469;-80
2022/04/29 08:22:06;;;;;;;10.20;9.23;;;;;;;;;;12583205;28;20031;-78
2022/04/29 08:28:08;;;;;;;8.77;8.00;;;;;;;;;;12594069;28;20040;-79
2022/04/29 08:34:11;;;;;;;19.27;17.70;;;;;;;;;;12546989;28;20051;-80
2022/04/29 08:40:13;;;;;;;11.68;8.25;;;;;;;;;;12578893;28;20274;-78
2022/04/29 08:46:15;;;;;;;5.13;4.63;;;;;;;;;;12595307;28;20047;-78
2022/04/29 08:52:39;;;;;;;12.50;11.20;;;;;;;;;;12582336;28;20047;-80
2022/04/29 08:58:41;;;;;;;;;;;;;;;;;;12546082;28;20047;-83
2022/04/29 09:04:43;;;;;;;5.07;4.57;;;;;;;;;;12587658;28;19916;-78
2022/04/29 09:10:48;;;;;;;4.05;3.70;;;;;;;;;;12577447;28;20044;-77
2022/04/29 09:16:50;;;;;;;4.97;3.00;;;;;;;;;;12580149;28;20032;-83
2022/04/29 09:22:52;;;;;;;3.03;2.40;;;;;;;;;;12582322;28;20040;-84
2022/04/29 09:29:21;;;;;;;2.13;1.88;;;;;;;;;;12585811;28;20056;-82
2022/04/29 09:35:43;;;;;;;3.80;1.60;;;;;;;;;;12582581;28;20036;-81
2022/04/29 09:41:55;;;;;;;1.60;1.50;;;;;;;;;;12592888;28;20033;-83
2022/04/29 09:48:01;;;;;;;2.20;1.90;;;;;;;;;;12603294;28;20504;-80
2022/04/29 09:54:17;;;;;;;1.65;1.55;;;;;;;;;;12591464;28;20532;-81
2022/04/29 10:00:20;;;;;;;1.60;1.30;;;;;;;;;;12586445;28;20366;-79
2022/04/29 10:06:23;;;;;;;2.40;1.35;;;;;;;;;;12614222;28;20045;-81
2022/04/29 10:12:27;;;;;;;2.17;1.98;;;;;;;;;;12597765;28;20036;-79
2022/04/29 10:25:36;;;;;;;1.88;1.63;;;;;;;;;;12586723;28;20045;-81
2022/04/29 10:31:37;;;;;;;1.90;1.80;;;;;;;;;;12589149;28;20493;-79
2022/04/29 10:37:39;;;;;;;1.42;1.27;;;;;;;;;;12594319;28;20382;-79
2022/04/29 10:43:51;;;;;;;1.60;1.50;;;;;;;;;;12586731;28;20044;-79
2022/04/29 10:49:53;;;;;;;1.40;1.30;;;;;;;;;;12606114;28;20504;-79
2022/04/29 10:56:19;;;;;;;2.22;1.70;;;;;;;;;;12588841;28;20029;-81
2022/04/29 11:02:31;;;;;;;2.33;1.17;;;;;;;;;;12591669;28;20040;-78
2022/04/29 11:08:33;;;;;;;;;;;;;;;;;;12587853;28;20378;-78
2022/04/29 11:14:36;;;;;;;;;;;;;;;;;;12578304;28;19908;-78
2022/04/29 11:27:27;;;;;;;2.33;2.13;;;;;;;;;;12590688;28;20052;-77
2022/04/29 11:33:30;;;;;;;2.88;2.00;;;;;;;;;;12577724;28;20164;-77
2022/04/29 11:39:35;;;;;;;3.80;3.50;;;;;;;;;;12595852;28;20029;-78
2022/04/29 11:45:39;;;;;;;8.00;7.30;;;;;;;;;;12594227;28;20036;-76
2022/04/29 11:51:41;;;;;;;5.18;4.68;;;;;;;;;;12594114;28;20036;-77
2022/04/29 11:57:44;;;;;;;2.95;2.75;;;;;;;;;;12594427;28;20035;-78
2022/04/29 12:03:47;;;;;;;4.90;2.30;;;;;;;;;;12596784;28;20047;-78
2022/04/29 12:09:51;;;;;;;2.72;2.35;;;;;;;;;;12594900;28;20047;-78
2022/04/29 12:15:52;;;;;;;;;;;;;;;;;;12592523;28;20045;-78
2022/04/29 12:21:55;;;;;;;2.30;2.10;;;;;;;;;;12594562;28;19912;-78
2022/04/29 12:28:06;;;;;;;3.05;2.80;;;;;;;;;;12591745;28;20539;-78
2022/04/29 12:40:39;;;;;;;1.60;1.50;;;;;;;;;;12625821;28;20032;-78
2022/04/29 12:46:40;;;;;;;1.40;1.30;;;;;;;;;;12644158;28;20032;-79
2022/04/29 12:52:42;;;;;;;;;;;;;;;;;;12626395;28;20503;-79
2022/04/29 12:58:45;;;;;;;2.47;2.28;;;;;;;;;;12644138;28;19942;-80
2022/04/29 13:04:46;;;;;;;1.65;1.55;;;;;;;;;;12624631;28;20032;-80
2022/04/29 13:10:58;;;;;;;1.50;1.40;;;;;;;;;;12643073;28;20044;-80
2022/04/29 13:16:59;;;;;;;1.45;1.35;;;;;;;;;;12608755;28;20028;-80
2022/04/29 13:23:01;;;;;;;2.00;1.58;;;;;;;;;;12625295;28;20047;-80
2022/04/29 13:29:03;;;;;;;1.75;1.40;;;;;;;;;;12624650;28;20397;-79
2022/04/29 13:35:06;;;;;;;;;;;;;;;;;;12626086;28;20044;-79
2022/04/29 13:41:08;;;;;;;0.93;0.93;;;;;;;;;;12624655;28;19908;-78
2022/04/29 13:47:10;;;;;;;1.30;1.20;;;;;;;;;;12624973;28;20040;-79
2022/04/29 13:53:12;;;;;;;0.95;0.80;;;;;;;;;;12642879;28;20058;-79
2022/04/29 13:59:14;;;;;;;1.60;0.80;;;;;;;;;;12643217;28;20420;-80
2022/04/29 14:05:16;;;;;;;4.40;4.07;;;;;;;;;;12642286;28;20055;-79
2022/04/29 14:11:18;;;;;;;2.50;2.30;;;;;;;;;;12642184;28;20033;-80
2022/04/29 14:17:19;;;;;;;5.50;5.10;;;;;;;;;;12648688;28;20040;-79
2022/04/29 14:23:21;;;;;;;4.88;4.55;;;;;;;;;;12650969;28;20488;-79
2022/04/29 14:29:23;;;;;;;2.83;2.40;;;;;;;;;;12632701;28;20052;-80
2022/04/29 14:35:25;;;;;;;3.22;2.20;;;;;;;;;;12631977;28;20408;-80
2022/04/29 14:41:26;;;;;;;;;;;;;;;;;;12650063;28;20028;-80
2022/04/29 14:47:28;;;;;;;1.07;1.07;;;;;;;;;;12632717;28;19908;-80
2022/04/29 14:53:31;;;;;;;1.00;0.90;;;;;;;;;;12614966;28;20040;-80
2022/04/29 14:59:33;;;;;;;0.75;0.75;;;;;;;;;;12631643;28;20369;-80
2022/04/29 15:05:35;;;;;;;;;;;;;;;;;;12649682;28;20043;-80
2022/04/29 15:17:58;;;;;;;1.88;0.80;;;;;;;;;;12630247;28;20036;-80
2022/04/29 15:23:59;;;;;;;0.70;0.63;;;;;;;;;;12630118;28;20043;-80
2022/04/29 15:30:02;;;;;;;;;;;;;;;;;;12612759;28;20067;-80
2022/04/29 15:36:04;;;;;;;0.50;0.50;;;;;;;;;;12628919;28;19911;-81
2022/04/29 15:42:08;;;;;;;1.00;0.50;;;;;;;;;;12646926;28;20020;-81
2022/04/29 15:48:11;;;;;;;0.90;0.50;;;;;;;;;;12646901;28;20040;-81
2022/04/29 15:54:13;;;;;;;0.50;0.50;;;;;;;;;;12628330;28;20028;-81
2022/04/29 16:00:15;;;;;;;0.70;0.70;;;;;;;;;;12628293;28;20035;-81
2022/04/29 16:06:40;;;;;;;0.52;0.52;;;;;;;;;;12631362;28;20413;-80
2022/04/29 16:12:42;;;;;;;0.98;0.77;;;;;;;;;;12645986;28;20039;-81
2022/04/29 16:31:26;;;;;;;0.60;0.60;;;;;;;;;;12645019;28;20060;-80
2022/04/29 16:37:28;;;;;;;0.70;0.60;;;;;;;;;;12643893;28;20465;-80
2022/04/29 16:43:30;;;;;;;1.15;0.60;;;;;;;;;;12645332;28;20032;-80
2022/04/29 16:49:32;;;;;;;;;;;;;;;;;;12644739;28;20039;-80
2022/04/29 16:55:33;;;;;;;0.70;0.60;;;;;;;;;;12626724;28;19908;-80
2022/04/29 17:01:35;;;;;;;1.52;0.60;;;;;;;;;;12645487;28;20381;-81
2022/04/29 17:07:38;;;;;;;1.00;0.60;;;;;;;;;;12644182;28;20040;-80
2022/04/29 17:13:40;;;;;;;0.60;0.60;;;;;;;;;;12643740;28;20063;-80
2022/04/29 17:19:41;;;;;;;0.63;0.63;;;;;;;;;;12625865;28;20036;-79
2022/04/29 17:25:43;;;;;;;;;;;;;;;;;;12625886;28;20028;-79
2022/04/29 17:31:45;;;;;;;0.70;0.70;;;;;;;;;;12644351;28;19916;-79
2022/04/29 17:37:46;;;;;;;;;;;;;;;;;;12609683;28;20036;-79
2022/04/29 17:43:48;;;;;;;2.13;0.83;;;;;;;;;;12624577;28;19908;-81
2022/04/29 17:56:12;;;;;;;2.28;1.30;;;;;;;;;;12652586;28;20434;-80
2022/04/29 18:02:14;;;;;;;0.85;0.85;;;;;;;;;;12634417;28;20047;-80
2022/04/29 18:08:15;;;;;;;1.33;1.00;;;;;;;;;;12633732;28;20040;-81
2022/04/29 18:14:17;;;;;;;2.05;0.90;;;;;;;;;;12651896;28;20495;-80
2022/04/29 18:20:19;;;;;;;0.63;0.63;;;;;;;;;;12651286;28;20032;-80
2022/04/29 18:26:21;;;;;;;2.28;1.13;;;;;;;;;;12650676;28;20400;-80
2022/04/29 18:32:22;;;;;;;1.00;0.90;;;;;;;;;;12633459;28;20059;-79
2022/04/29 18:38:25;;;;;;;1.83;1.10;;;;;;;;;;12651500;28;20290;-80
2022/04/29 18:44:27;;;;;;;0.82;0.82;;;;;;;;;;12650229;28;20028;-80
2022/04/29 18:50:28;;;;;;;2.58;1.05;;;;;;;;;;12649560;28;20040;-80
2022/04/29 18:56:30;;;;;;;1.20;1.10;;;;;;;;;;12632106;28;20035;-80
2022/04/29 19:02:33;;;;;;;2.03;1.00;;;;;;;;;;12630861;28;20039;-80
2022/04/29 19:08:34;;;;;;;0.90;0.90;;;;;;;;;;12649367;28;20059;-80
2022/04/29 19:14:36;;;;;;;1.80;1.10;;;;;;;;;;12630381;28;20036;-80
2022/04/29 19:20:38;;;;;;;1.17;1.03;;;;;;;;;;12647624;28;20028;-79
2022/04/29 19:26:40;;;;;;;;;;;;;;;;;;12630538;28;20278;-79
2022/04/29 19:32:41;;;;;;;1.45;1.35;;;;;;;;;;12648457;28;20388;-79
2022/04/29 19:38:44;;;;;;;2.58;1.38;;;;;;;;;;12629514;28;20040;-80
2022/04/29 19:44:46;;;;;;;3.05;1.40;;;;;;;;;;12646995;28;20024;-80
2022/04/29 19:50:48;;;;;;;2.77;1.20;;;;;;;;;;12646591;28;20039;-79
2022/04/29 20:09:32;;;;;;;1.27;1.17;;;;;;;;;;12645747;28;20110;-79
2022/04/29 20:15:34;;;;;;;1.73;1.47;;;;;;;;;;12645501;28;20024;-79
2022/04/29 20:21:37;;;;;;;1.87;1.40;;;;;;;;;;12627100;28;20035;-79
2022/04/29 20:27:39;;;;;;;1.90;1.48;;;;;;;;;;12626899;28;20035;-79
2022/04/29 20:33:41;;;;;;;1.85;1.20;;;;;;;;;;12644735;28;20097;-79
2022/04/29 20:46:03;;;;;;;1.52;1.42;;;;;;;;;;12644798;28;20059;-79
2022/04/29 20:52:05;;;;;;;3.97;3.03;;;;;;;;;;12609806;28;20048;-79
2022/04/29 20:58:06;;;;;;;4.53;3.37;;;;;;;;;;12643931;28;20107;-79
2022/04/29 21:04:08;;;;;;;3.63;3.33;;;;;;;;;;12609389;28;20077;-79
2022/04/29 21:10:10;;;;;;;2.93;2.73;;;;;;;;;;12625983;28;20048;-80
2022/04/29 21:16:12;;;;;;;3.03;2.73;;;;;;;;;;12625496;28;20036;-79
2022/04/29 21:22:13;;;;;;;2.33;2.13;;;;;;;;;;12643777;28;20028;-79
2022/04/29 21:28:16;;;;;;;2.63;2.42;;;;;;;;;;12652469;28;20040;-79
2022/04/29 21:34:18;;;;;;;3.03;2.50;;;;;;;;;;12635038;28;20060;-80
2022/04/29 21:40:20;;;;;;;2.70;2.50;;;;;;;;;;12635167;28;20389;-80
2022/04/29 21:46:26;;;;;;;3.30;3.00;;;;;;;;;;12634928;28;20024;-79
2022/04/29 21:52:27;;;;;;;4.25;3.10;;;;;;;;;;12634493;28;20040;-80
2022/04/29 21:58:29;;;;;;;4.87;2.97;;;;;;;;;;12634124;28;20360;-80
2022/04/29 22:04:31;;;;;;;3.90;3.10;;;;;;;;;;12651959;28;20039;-80
2022/04/29 22:10:33;;;;;;;3.22;2.75;;;;;;;;;;12633576;28;20047;-80
2022/04/29 22:16:35;;;;;;;3.50;3.20;;;;;;;;;;12651607;28;20032;-80
2022/04/29 22:22:37;;;;;;;2.72;2.53;;;;;;;;;;12651183;28;20047;-80
2022/04/29 22:28:40;;;;;;;3.45;3.15;;;;;;;;;;12632814;28;20040;-80
2022/04/29 22:34:41;;;;;;;3.08;2.80;;;;;;;;;;12650171;28;20044;-80
2022/04/29 22:40:43;;;;;;;2.97;2.77;;;;;;;;;;12650237;28;20036;-79
2022/04/29 22:46:45;;;;;;;3.70;2.80;;;;;;;;;;12649951;28;20040;-80
2022/04/29 22:52:47;;;;;;;3.15;2.95;;;;;;;;;;12631458;28;20373;-79
2022/04/29 22:58:49;;;;;;;3.78;3.47;;;;;;;;;;12615131;28;20028;-80
2022/04/29 23:04:51;;;;;;;3.72;3.40;;;;;;;;;;12649477;28;20028;-80
2022/04/29 23:10:52;;;;;;;3.83;3.30;;;;;;;;;;12648677;28;20047;-79
2022/04/29 23:16:54;;;;;;;3.57;3.27;;;;;;;;;;12631018;28;20036;-79
2022/04/29 23:22:56;;;;;;;4.63;4.22;;;;;;;;;;12630234;28;20389;-80
2022/04/29 23:28:58;;;;;;;3.70;3.40;;;;;;;;;;12648272;28;20039;-79
2022/04/29 23:35:00;;;;;;;;;;;;;;;;;;12646847;28;20052;-79
2022/04/29 23:41:02;;;;;;;4.97;4.50;;;;;;;;;;12628992;28;19908;-80
2022/04/29 23:47:06;;;;;;;4.47;4.07;;;;;;;;;;12646408;28;20032;-79
2022/04/29 23:53:08;;;;;;;4.00;3.70;;;;;;;;;;12628885;28;20047;-79
2022/04/29 23:59:10;;;;;;;4.28;3.97;;;;;;;;;;12647067;28;20032;-79
